createdAt,value
2022-12-14T00:01:34.197Z,1.98
2022-12-14T00:11:34.235Z,1.19
2022-12-14T00:21:34.317Z,2.67
2022-12-14T00:31:34.690Z,1.78
2022-12-14T00:41:35.289Z,1.49
2022-12-14T00:51:35.330Z,0.79
2022-12-14T01:01:35.441Z,1.49
2022-12-14T01:11:35.277Z,1.19
2022-12-14T01:21:35.357Z,0.40
2022-12-14T01:31:35.376Z,1.29
2022-12-14T01:41:35.517Z,0.69
2022-12-14T01:51:35.548Z,1.49
2022-12-14T02:01:35.451Z,0.60
2022-12-14T02:11:35.376Z,1.39
2022-12-14T02:21:36.312Z,0.69
2022-12-14T02:31:36.433Z,1.78
2022-12-14T02:41:37.835Z,1.78
2022-12-14T02:51:38.453Z,0.40
2022-12-14T03:01:38.675Z,2.38
2022-12-14T03:11:59.097Z,0.50
2022-12-14T03:21:59.525Z,1.09
2022-12-14T03:31:59.577Z,0.30
2022-12-14T03:41:59.458Z,0.59
2022-12-14T03:51:59.527Z,1.59
2022-12-14T04:01:59.758Z,0.30
2022-12-14T04:12:34.271Z,2.38
2022-12-14T04:22:34.636Z,0.79
2022-12-14T04:32:34.567Z,2.08
2022-12-14T04:42:34.510Z,1.68
2022-12-14T04:52:34.524Z,2.37
2022-12-14T05:02:34.695Z,2.27
2022-12-14T05:12:34.559Z,1.78
2022-12-14T05:22:34.606Z,0.59
2022-12-14T05:32:34.556Z,1.48
2022-12-14T05:42:37.127Z,0.99
2022-12-14T05:52:36.578Z,0.59
2022-12-14T06:02:36.695Z,0.79
2022-12-14T06:12:36.636Z,0.99
2022-12-14T06:22:36.901Z,1.68
2022-12-14T06:32:37.165Z,2.27
2022-12-14T06:42:37.647Z,0.59
2022-12-14T06:52:39.206Z,1.78
2022-12-14T07:02:40.024Z,1.18
2022-12-14T07:12:40.864Z,0.79
2022-12-14T07:22:40.795Z,2.47
2022-12-14T07:32:40.817Z,1.68
2022-12-14T07:42:42.647Z,1.58
2022-12-14T07:52:44.650Z,1.58
2022-12-14T08:02:44.793Z,1.38
2022-12-14T08:12:44.830Z,1.09
2022-12-14T08:22:44.750Z,1.19
2022-12-14T08:32:44.822Z,1.09
2022-12-14T08:42:44.796Z,1.09
2022-12-14T08:52:44.813Z,2.77
2022-12-14T09:02:45.990Z,1.58
2022-12-14T09:12:47.897Z,1.98
2022-12-14T09:22:47.818Z,1.98
2022-12-14T09:32:50.592Z,1.98
2022-12-14T09:42:50.795Z,1.78
2022-12-14T09:52:51.851Z,1.98
2022-12-14T10:02:52.128Z,2.28
2022-12-14T10:12:52.892Z,2.58
2022-12-14T10:22:52.878Z,1.19
2022-12-14T10:32:53.043Z,2.58
2022-12-14T10:42:53.042Z,0.40
2022-12-14T10:52:54.170Z,2.19
2022-12-14T11:02:54.517Z,2.39
2022-12-14T11:12:54.942Z,2.09
2022-12-14T11:22:55.314Z,2.58
2022-12-14T11:32:55.063Z,3.58
2022-12-14T11:42:54.985Z,4.47
2022-12-14T11:52:54.997Z,2.58
2022-12-14T12:02:55.154Z,2.39
2022-12-14T12:12:58.043Z,3.58
2022-12-14T12:22:58.063Z,2.19
2022-12-14T12:32:58.090Z,3.78
2022-12-14T12:42:58.047Z,3.97
2022-12-14T12:53:03.263Z,2.48
2022-12-14T13:03:00.322Z,2.68
2022-12-14T13:13:00.104Z,2.38
2022-12-14T13:23:15.220Z,3.57
2022-12-14T13:33:02.120Z,4.57
2022-12-14T13:43:02.217Z,3.08
2022-12-14T13:53:02.173Z,6.84
2022-12-14T14:03:02.339Z,4.46
2022-12-14T14:13:02.138Z,3.86
2022-12-14T14:23:02.185Z,12.57
2022-12-14T14:33:36.311Z,2.47
2022-12-14T14:43:04.463Z,1.48
2022-12-14T14:53:06.994Z,4.25
2022-12-14T15:03:07.333Z,4.15
2022-12-14T15:13:08.224Z,3.95
2022-12-14T15:23:08.740Z,3.94
2022-12-14T15:33:09.273Z,3.35
2022-12-14T15:43:09.254Z,5.81
2022-12-14T15:53:09.304Z,4.43
2022-12-14T16:03:09.359Z,6.39
2022-12-14T16:13:09.611Z,5.99
2022-12-14T16:23:09.488Z,4.02
2022-12-14T16:33:09.366Z,3.53
2022-12-14T16:43:09.384Z,6.08
2022-12-14T16:53:09.341Z,6.56
2022-12-14T17:03:09.739Z,4.40
2022-12-14T17:13:10.315Z,8.99
2022-12-14T17:23:10.373Z,7.13
2022-12-14T17:33:10.490Z,5.17
2022-12-14T17:43:10.400Z,6.14
2022-12-14T17:53:10.891Z,7.49
2022-12-14T18:03:11.941Z,8.17
2022-12-14T18:13:12.523Z,12.34
2022-12-14T18:23:12.429Z,8.74
2022-12-14T18:33:12.544Z,7.37
2022-12-14T18:43:12.434Z,4.65
2022-12-14T18:53:12.517Z,10.07
2022-12-14T19:03:14.639Z,8.42
2022-12-14T19:13:14.567Z,11.99
2022-12-14T19:23:14.621Z,8.99
2022-12-14T19:33:14.860Z,7.82
2022-12-14T19:43:14.964Z,7.33
2022-12-14T19:53:21.459Z,4.44
2022-12-14T20:03:17.821Z,8.29
2022-12-14T20:13:18.758Z,4.24
2022-12-14T20:23:18.869Z,7.21
2022-12-14T20:33:18.598Z,9.13
2022-12-14T20:43:18.628Z,7.40
2022-12-14T20:53:18.653Z,8.06
2022-12-14T21:03:18.738Z,12.19
2022-12-14T21:13:38.025Z,7.77
2022-12-14T21:23:37.719Z,7.00
2022-12-14T21:33:37.716Z,5.75
2022-12-14T21:43:37.631Z,6.31
2022-12-14T21:53:38.118Z,8.79
2022-12-14T22:03:38.668Z,10.98
2022-12-14T22:13:38.644Z,18.14
2022-12-14T22:23:43.381Z,9.06
2022-12-14T22:33:40.675Z,7.62
2022-12-14T22:43:41.346Z,9.23
2022-12-14T22:53:41.645Z,4.95
2022-12-14T23:03:41.841Z,6.28
2022-12-14T23:14:00.349Z,3.90
2022-12-14T23:24:19.115Z,7.50
2022-12-14T23:34:37.374Z,8.83
2022-12-14T23:44:55.803Z,5.32
2022-12-14T23:55:14.135Z,3.89
